Airfield :
LOGIN :

Register | Disclaimer

   EN    FR    IT 

 










Legend :    VFR   Marginal VFR   IFR   Intensive IFR   Very Intensive IFR
Visi :
Ceiling :
>= 8 km
>= 3000ft
5 to 8 km
1000 to 3000 ft
1500m to 5 km
500 to 1000 ft
800 to 1500m
200 to 500 ft
< 800m
< 200 ft
Symbols :   Thunderstorms  Fog  Heavy snow  Heavy precipitations  Wind > 20 kt
SIGMETs :     Misc.  Thunderstorms  Icing  Turbulence  Mountain Waves  Volcanic Ashes






- Airport Elevation : 463 ft
- IATA code : SZY
- AIRPORT CLOSED.


EPSY - Szczytno

CURRENT METAR :
  • 071600Z 34009KT 310V030 CAVOK 22/10 Q1023

EXPIRED METARs :
  • 071530Z 36008KT 320V050 CAVOK 22/10 Q1023
  • 071500Z 02007KT 310V080 CAVOK 22/10 Q1023
  • 071430Z 36008KT 330V040 CAVOK 22/10 Q1023
  • 071400Z 33005KT 280V010 CAVOK 22/09 Q1023
  • 071330Z VRB07KT CAVOK 22/08 Q1023

TAF TAF EPSY
Valid from the 07 at 15:00 until the 08 at 00:00 UTC


071430Z 0715/0724 36006KT CAVOK



MET'MAP, your aeronautical weather chart ! - Copyright ORBIFLY December 2007 - Disclaimer

ORBIFLY MET'MAP TEAM :

Programming & Development : Alexandra Zaïnal
Original concept : Baudouin d'Aumeries
Technical & hardware support : Manuel Goepfert
Assistance : Marc-Olivier Méhu




SOURCES & CREDITS :

   NOAA